sensor_id;sensor_type;location;lat;lon;timestamp;P1;durP1;ratioP1;P2;durP2;ratioP2
68108;SDS011;54893;49.864;19.084;2024-03-08T00:04:00;54.58;;;20.42;;
68108;SDS011;54893;49.864;19.084;2024-03-08T00:09:01;52.47;;;19.30;;
68108;SDS011;54893;49.864;19.084;2024-03-08T00:14:01;49.30;;;18.45;;
68108;SDS011;54893;49.864;19.084;2024-03-08T00:19:02;58.67;;;21.25;;
68108;SDS011;54893;49.864;19.084;2024-03-08T00:24:02;49.80;;;18.13;;
68108;SDS011;54893;49.864;19.084;2024-03-08T00:29:03;54.93;;;19.63;;
68108;SDS011;54893;49.864;19.084;2024-03-08T00:34:03;56.60;;;21.07;;
68108;SDS011;54893;49.864;19.084;2024-03-08T00:39:04;49.23;;;19.97;;
68108;SDS011;54893;49.864;19.084;2024-03-08T00:44:06;55.60;;;19.17;;
68108;SDS011;54893;49.864;19.084;2024-03-08T00:49:06;49.63;;;18.27;;
68108;SDS011;54893;49.864;19.084;2024-03-08T00:54:07;55.13;;;19.97;;
68108;SDS011;54893;49.864;19.084;2024-03-08T00:59:07;51.53;;;19.30;;
68108;SDS011;54893;49.864;19.084;2024-03-08T01:04:07;53.73;;;20.10;;
68108;SDS011;54893;49.864;19.084;2024-03-08T01:09:08;46.60;;;17.83;;
68108;SDS011;54893;49.864;19.084;2024-03-08T01:14:09;50.30;;;18.67;;
68108;SDS011;54893;49.864;19.084;2024-03-08T01:19:09;48.23;;;18.27;;
68108;SDS011;54893;49.864;19.084;2024-03-08T01:24:10;49.40;;;18.50;;
68108;SDS011;54893;49.864;19.084;2024-03-08T01:29:10;47.90;;;17.07;;
68108;SDS011;54893;49.864;19.084;2024-03-08T01:34:10;58.60;;;20.80;;
68108;SDS011;54893;49.864;19.084;2024-03-08T01:39:11;54.57;;;19.57;;
68108;SDS011;54893;49.864;19.084;2024-03-08T01:44:11;53.63;;;18.97;;
68108;SDS011;54893;49.864;19.084;2024-03-08T01:49:15;55.75;;;20.63;;
68108;SDS011;54893;49.864;19.084;2024-03-08T01:54:18;55.40;;;19.95;;
68108;SDS011;54893;49.864;19.084;2024-03-08T01:59:19;62.55;;;21.98;;
68108;SDS011;54893;49.864;19.084;2024-03-08T02:04:20;57.40;;;19.77;;
68108;SDS011;54893;49.864;19.084;2024-03-08T02:09:21;57.50;;;20.90;;
68108;SDS011;54893;49.864;19.084;2024-03-08T02:14:22;61.07;;;22.37;;
68108;SDS011;54893;49.864;19.084;2024-03-08T02:19:23;62.83;;;22.13;;
68108;SDS011;54893;49.864;19.084;2024-03-08T02:24:24;58.30;;;20.27;;
68108;SDS011;54893;49.864;19.084;2024-03-08T02:29:24;55.37;;;20.10;;
68108;SDS011;54893;49.864;19.084;2024-03-08T02:34:24;58.37;;;21.83;;
68108;SDS011;54893;49.864;19.084;2024-03-08T02:39:25;50.10;;;17.53;;
68108;SDS011;54893;49.864;19.084;2024-03-08T02:44:25;51.87;;;19.33;;
68108;SDS011;54893;49.864;19.084;2024-03-08T02:49:26;50.23;;;19.00;;
68108;SDS011;54893;49.864;19.084;2024-03-08T02:54:26;60.80;;;19.87;;
68108;SDS011;54893;49.864;19.084;2024-03-08T02:59:27;59.77;;;19.70;;
68108;SDS011;54893;49.864;19.084;2024-03-08T03:04:27;57.53;;;21.07;;
68108;SDS011;54893;49.864;19.084;2024-03-08T03:09:27;55.53;;;20.33;;
68108;SDS011;54893;49.864;19.084;2024-03-08T03:14:28;55.17;;;19.73;;
68108;SDS011;54893;49.864;19.084;2024-03-08T03:19:28;54.57;;;18.87;;
68108;SDS011;54893;49.864;19.084;2024-03-08T03:24:30;52.53;;;19.17;;
68108;SDS011;54893;49.864;19.084;2024-03-08T03:29:30;59.43;;;20.87;;
68108;SDS011;54893;49.864;19.084;2024-03-08T03:34:31;53.10;;;18.60;;
68108;SDS011;54893;49.864;19.084;2024-03-08T03:39:32;54.53;;;20.42;;
68108;SDS011;54893;49.864;19.084;2024-03-08T03:44:34;58.07;;;19.60;;
68108;SDS011;54893;49.864;19.084;2024-03-08T03:49:34;48.53;;;17.93;;
68108;SDS011;54893;49.864;19.084;2024-03-08T03:54:35;55.00;;;19.00;;
68108;SDS011;54893;49.864;19.084;2024-03-08T03:59:35;53.57;;;18.07;;
68108;SDS011;54893;49.864;19.084;2024-03-08T04:04:35;57.67;;;21.23;;
68108;SDS011;54893;49.864;19.084;2024-03-08T04:09:36;51.47;;;19.03;;
68108;SDS011;54893;49.864;19.084;2024-03-08T04:14:36;55.90;;;18.83;;
68108;SDS011;54893;49.864;19.084;2024-03-08T04:19:38;48.22;;;17.40;;
68108;SDS011;54893;49.864;19.084;2024-03-08T04:24:39;48.80;;;17.77;;
68108;SDS011;54893;49.864;19.084;2024-03-08T04:29:40;51.78;;;18.60;;
68108;SDS011;54893;49.864;19.084;2024-03-08T04:34:41;53.63;;;19.37;;
68108;SDS011;54893;49.864;19.084;2024-03-08T04:39:41;55.40;;;18.50;;
68108;SDS011;54893;49.864;19.084;2024-03-08T04:44:42;53.63;;;19.57;;
68108;SDS011;54893;49.864;19.084;2024-03-08T04:49:43;47.17;;;17.70;;
68108;SDS011;54893;49.864;19.084;2024-03-08T04:54:43;45.55;;;16.70;;
68108;SDS011;54893;49.864;19.084;2024-03-08T04:59:44;48.77;;;17.53;;
68108;SDS011;54893;49.864;19.084;2024-03-08T05:04:45;50.70;;;19.90;;
68108;SDS011;54893;49.864;19.084;2024-03-08T05:09:45;56.70;;;20.57;;
68108;SDS011;54893;49.864;19.084;2024-03-08T05:14:51;51.83;;;19.70;;
68108;SDS011;54893;49.864;19.084;2024-03-08T05:19:51;54.10;;;18.83;;
68108;SDS011;54893;49.864;19.084;2024-03-08T05:24:52;53.87;;;19.30;;
68108;SDS011;54893;49.864;19.084;2024-03-08T05:29:52;57.93;;;18.93;;
68108;SDS011;54893;49.864;19.084;2024-03-08T05:34:52;61.13;;;20.93;;
68108;SDS011;54893;49.864;19.084;2024-03-08T05:39:53;54.63;;;20.67;;
68108;SDS011;54893;49.864;19.084;2024-03-08T05:44:54;49.55;;;16.08;;
68108;SDS011;54893;49.864;19.084;2024-03-08T05:49:57;30.58;;;9.98;;
68108;SDS011;54893;49.864;19.084;2024-03-08T05:54:57;45.90;;;15.73;;
68108;SDS011;54893;49.864;19.084;2024-03-08T05:59:57;64.13;;;22.30;;
68108;SDS011;54893;49.864;19.084;2024-03-08T06:04:58;45.23;;;16.73;;
68108;SDS011;54893;49.864;19.084;2024-03-08T06:09:58;59.75;;;20.95;;
68108;SDS011;54893;49.864;19.084;2024-03-08T06:15:00;59.20;;;18.35;;
68108;SDS011;54893;49.864;19.084;2024-03-08T06:20:00;51.70;;;18.13;;
68108;SDS011;54893;49.864;19.084;2024-03-08T06:25:01;50.60;;;18.98;;
68108;SDS011;54893;49.864;19.084;2024-03-08T06:30:01;55.20;;;19.00;;
68108;SDS011;54893;49.864;19.084;2024-03-08T06:35:05;52.43;;;19.27;;
68108;SDS011;54893;49.864;19.084;2024-03-08T06:40:06;49.92;;;18.48;;
68108;SDS011;54893;49.864;19.084;2024-03-08T06:45:10;48.47;;;17.27;;
68108;SDS011;54893;49.864;19.084;2024-03-08T06:50:12;53.60;;;18.35;;
68108;SDS011;54893;49.864;19.084;2024-03-08T06:55:13;49.60;;;16.40;;
68108;SDS011;54893;49.864;19.084;2024-03-08T07:00:14;44.73;;;15.47;;
68108;SDS011;54893;49.864;19.084;2024-03-08T07:05:18;49.43;;;17.10;;
68108;SDS011;54893;49.864;19.084;2024-03-08T07:10:18;44.40;;;15.83;;
68108;SDS011;54893;49.864;19.084;2024-03-08T07:15:19;48.13;;;17.97;;
68108;SDS011;54893;49.864;19.084;2024-03-08T07:20:19;38.47;;;14.27;;
68108;SDS011;54893;49.864;19.084;2024-03-08T07:25:20;45.97;;;15.97;;
68108;SDS011;54893;49.864;19.084;2024-03-08T07:30:21;40.65;;;14.45;;
68108;SDS011;54893;49.864;19.084;2024-03-08T07:35:41;38.83;;;15.03;;
68108;SDS011;54893;49.864;19.084;2024-03-08T07:40:45;41.15;;;14.48;;
68108;SDS011;54893;49.864;19.084;2024-03-08T07:45:45;38.97;;;15.20;;
68108;SDS011;54893;49.864;19.084;2024-03-08T07:50:46;36.97;;;13.87;;
68108;SDS011;54893;49.864;19.084;2024-03-08T07:55:46;38.67;;;14.47;;
68108;SDS011;54893;49.864;19.084;2024-03-08T08:00:47;25.43;;;10.77;;
68108;SDS011;54893;49.864;19.084;2024-03-08T08:05:49;36.72;;;13.52;;
68108;SDS011;54893;49.864;19.084;2024-03-08T08:10:49;38.87;;;13.67;;
68108;SDS011;54893;49.864;19.084;2024-03-08T08:15:49;31.23;;;11.10;;
68108;SDS011;54893;49.864;19.084;2024-03-08T08:20:50;32.90;;;13.07;;
68108;SDS011;54893;49.864;19.084;2024-03-08T08:25:52;46.60;;;16.30;;
68108;SDS011;54893;49.864;19.084;2024-03-08T08:30:52;35.57;;;14.13;;
68108;SDS011;54893;49.864;19.084;2024-03-08T08:35:53;38.77;;;14.97;;
68108;SDS011;54893;49.864;19.084;2024-03-08T08:40:54;33.50;;;12.85;;
68108;SDS011;54893;49.864;19.084;2024-03-08T08:45:56;34.40;;;13.20;;
68108;SDS011;54893;49.864;19.084;2024-03-08T08:50:56;31.93;;;13.60;;
68108;SDS011;54893;49.864;19.084;2024-03-08T08:55:56;38.20;;;14.87;;
68108;SDS011;54893;49.864;19.084;2024-03-08T09:00:57;37.13;;;13.63;;
68108;SDS011;54893;49.864;19.084;2024-03-08T09:05:57;35.17;;;13.40;;
68108;SDS011;54893;49.864;19.084;2024-03-08T09:10:58;36.20;;;15.73;;
68108;SDS011;54893;49.864;19.084;2024-03-08T09:16:00;38.90;;;14.13;;
68108;SDS011;54893;49.864;19.084;2024-03-08T09:21:00;37.33;;;14.90;;
68108;SDS011;54893;49.864;19.084;2024-03-08T09:26:00;38.67;;;14.55;;
68108;SDS011;54893;49.864;19.084;2024-03-08T09:31:03;38.78;;;15.13;;
68108;SDS011;54893;49.864;19.084;2024-03-08T09:36:03;44.33;;;16.67;;
68108;SDS011;54893;49.864;19.084;2024-03-08T09:41:04;40.55;;;15.20;;
68108;SDS011;54893;49.864;19.084;2024-03-08T09:46:05;42.97;;;16.10;;
68108;SDS011;54893;49.864;19.084;2024-03-08T09:51:06;42.45;;;16.55;;
68108;SDS011;54893;49.864;19.084;2024-03-08T09:56:08;41.77;;;15.33;;
68108;SDS011;54893;49.864;19.084;2024-03-08T10:01:08;43.63;;;15.95;;
68108;SDS011;54893;49.864;19.084;2024-03-08T10:06:08;38.47;;;15.47;;
68108;SDS011;54893;49.864;19.084;2024-03-08T10:11:10;41.97;;;15.13;;
68108;SDS011;54893;49.864;19.084;2024-03-08T10:16:12;42.60;;;15.02;;
68108;SDS011;54893;49.864;19.084;2024-03-08T10:21:12;41.88;;;15.82;;
68108;SDS011;54893;49.864;19.084;2024-03-08T10:26:15;39.33;;;14.68;;
68108;SDS011;54893;49.864;19.084;2024-03-08T10:31:16;44.05;;;15.25;;
68108;SDS011;54893;49.864;19.084;2024-03-08T10:36:18;40.30;;;15.80;;
68108;SDS011;54893;49.864;19.084;2024-03-08T10:41:19;36.58;;;13.40;;
68108;SDS011;54893;49.864;19.084;2024-03-08T10:46:30;36.78;;;14.30;;
68108;SDS011;54893;49.864;19.084;2024-03-08T10:51:38;43.60;;;16.52;;
68108;SDS011;54893;49.864;19.084;2024-03-08T10:56:41;35.42;;;12.68;;
68108;SDS011;54893;49.864;19.084;2024-03-08T11:01:41;39.57;;;16.10;;
68108;SDS011;54893;49.864;19.084;2024-03-08T11:06:42;43.63;;;17.20;;
68108;SDS011;54893;49.864;19.084;2024-03-08T11:11:45;43.53;;;15.77;;
68108;SDS011;54893;49.864;19.084;2024-03-08T11:16:45;33.73;;;13.07;;
68108;SDS011;54893;49.864;19.084;2024-03-08T11:21:47;41.58;;;15.77;;
68108;SDS011;54893;49.864;19.084;2024-03-08T11:26:47;44.57;;;16.37;;
68108;SDS011;54893;49.864;19.084;2024-03-08T11:31:47;39.43;;;16.07;;
68108;SDS011;54893;49.864;19.084;2024-03-08T11:36:48;42.47;;;17.07;;
68108;SDS011;54893;49.864;19.084;2024-03-08T11:41:48;44.77;;;17.30;;
68108;SDS011;54893;49.864;19.084;2024-03-08T11:46:49;41.27;;;15.70;;
68108;SDS011;54893;49.864;19.084;2024-03-08T11:51:52;40.47;;;15.87;;
68108;SDS011;54893;49.864;19.084;2024-03-08T11:56:56;43.20;;;15.75;;
68108;SDS011;54893;49.864;19.084;2024-03-08T12:02:07;45.47;;;15.80;;
68108;SDS011;54893;49.864;19.084;2024-03-08T12:07:11;36.25;;;14.73;;
68108;SDS011;54893;49.864;19.084;2024-03-08T12:12:14;40.70;;;17.30;;
68108;SDS011;54893;49.864;19.084;2024-03-08T12:17:14;42.10;;;17.10;;
68108;SDS011;54893;49.864;19.084;2024-03-08T12:22:15;39.17;;;15.98;;
68108;SDS011;54893;49.864;19.084;2024-03-08T12:27:18;40.63;;;16.50;;
68108;SDS011;54893;49.864;19.084;2024-03-08T12:32:20;42.85;;;17.58;;
68108;SDS011;54893;49.864;19.084;2024-03-08T12:37:23;45.35;;;18.85;;
68108;SDS011;54893;49.864;19.084;2024-03-08T12:42:26;40.80;;;16.13;;
68108;SDS011;54893;49.864;19.084;2024-03-08T12:47:29;38.80;;;15.80;;
68108;SDS011;54893;49.864;19.084;2024-03-08T12:52:30;38.47;;;14.85;;
68108;SDS011;54893;49.864;19.084;2024-03-08T12:57:30;42.37;;;16.17;;
68108;SDS011;54893;49.864;19.084;2024-03-08T13:02:31;41.57;;;16.83;;
68108;SDS011;54893;49.864;19.084;2024-03-08T13:07:32;43.50;;;16.23;;
68108;SDS011;54893;49.864;19.084;2024-03-08T13:12:33;42.60;;;15.20;;
68108;SDS011;54893;49.864;19.084;2024-03-08T13:17:38;35.10;;;14.93;;
68108;SDS011;54893;49.864;19.084;2024-03-08T13:22:40;40.20;;;15.33;;
68108;SDS011;54893;49.864;19.084;2024-03-08T13:27:40;38.00;;;16.13;;
68108;SDS011;54893;49.864;19.084;2024-03-08T13:32:42;41.03;;;15.43;;
68108;SDS011;54893;49.864;19.084;2024-03-08T13:37:46;40.20;;;16.00;;
68108;SDS011;54893;49.864;19.084;2024-03-08T13:42:47;43.10;;;16.60;;
68108;SDS011;54893;49.864;19.084;2024-03-08T13:47:49;45.80;;;15.97;;
68108;SDS011;54893;49.864;19.084;2024-03-08T13:52:53;75.50;;;21.23;;
68108;SDS011;54893;49.864;19.084;2024-03-08T13:57:54;66.63;;;18.93;;
68108;SDS011;54893;49.864;19.084;2024-03-08T14:02:54;47.70;;;16.20;;
68108;SDS011;54893;49.864;19.084;2024-03-08T14:07:55;62.07;;;19.13;;
68108;SDS011;54893;49.864;19.084;2024-03-08T14:12:55;56.93;;;18.07;;
68108;SDS011;54893;49.864;19.084;2024-03-08T14:17:55;75.20;;;20.43;;
68108;SDS011;54893;49.864;19.084;2024-03-08T14:22:57;67.65;;;17.63;;
68108;SDS011;54893;49.864;19.084;2024-03-08T14:27:57;53.13;;;16.53;;
68108;SDS011;54893;49.864;19.084;2024-03-08T14:33:02;42.13;;;16.83;;
68108;SDS011;54893;49.864;19.084;2024-03-08T14:38:02;45.72;;;16.95;;
68108;SDS011;54893;49.864;19.084;2024-03-08T14:43:03;66.67;;;19.03;;
68108;SDS011;54893;49.864;19.084;2024-03-08T14:48:04;48.72;;;19.02;;
68108;SDS011;54893;49.864;19.084;2024-03-08T14:53:05;46.70;;;17.35;;
68108;SDS011;54893;49.864;19.084;2024-03-08T14:58:06;43.15;;;18.38;;
68108;SDS011;54893;49.864;19.084;2024-03-08T15:03:07;57.93;;;27.80;;
68108;SDS011;54893;49.864;19.084;2024-03-08T15:08:07;78.38;;;36.47;;
68108;SDS011;54893;49.864;19.084;2024-03-08T15:13:10;51.35;;;22.38;;
68108;SDS011;54893;49.864;19.084;2024-03-08T15:18:23;61.00;;;24.00;;
68108;SDS011;54893;49.864;19.084;2024-03-08T15:23:34;142.60;;;62.95;;
68108;SDS011;54893;49.864;19.084;2024-03-08T15:28:35;104.63;;;41.37;;
68108;SDS011;54893;49.864;19.084;2024-03-08T15:33:38;57.40;;;28.15;;
68108;SDS011;54893;49.864;19.084;2024-03-08T15:38:48;61.35;;;33.17;;
68108;SDS011;54893;49.864;19.084;2024-03-08T15:43:48;65.27;;;24.87;;
68108;SDS011;54893;49.864;19.084;2024-03-08T15:48:50;112.47;;;36.33;;
68108;SDS011;54893;49.864;19.084;2024-03-08T15:53:51;90.43;;;29.80;;
68108;SDS011;54893;49.864;19.084;2024-03-08T15:58:56;64.53;;;26.00;;
68108;SDS011;54893;49.864;19.084;2024-03-08T16:03:56;194.33;;;54.90;;
68108;SDS011;54893;49.864;19.084;2024-03-08T16:08:58;70.53;;;28.48;;
68108;SDS011;54893;49.864;19.084;2024-03-08T16:13:59;93.85;;;29.20;;
68108;SDS011;54893;49.864;19.084;2024-03-08T16:19:00;189.03;;;47.90;;
68108;SDS011;54893;49.864;19.084;2024-03-08T16:24:02;136.18;;;39.05;;
68108;SDS011;54893;49.864;19.084;2024-03-08T16:29:03;75.47;;;24.60;;
68108;SDS011;54893;49.864;19.084;2024-03-08T16:34:04;80.95;;;29.88;;
68108;SDS011;54893;49.864;19.084;2024-03-08T16:39:05;88.70;;;28.63;;
68108;SDS011;54893;49.864;19.084;2024-03-08T16:44:06;71.80;;;25.15;;
68108;SDS011;54893;49.864;19.084;2024-03-08T16:49:06;109.73;;;32.20;;
68108;SDS011;54893;49.864;19.084;2024-03-08T16:54:06;93.27;;;27.30;;
68108;SDS011;54893;49.864;19.084;2024-03-08T16:59:08;81.63;;;26.15;;
68108;SDS011;54893;49.864;19.084;2024-03-08T17:04:10;72.53;;;26.08;;
68108;SDS011;54893;49.864;19.084;2024-03-08T17:09:12;108.13;;;38.33;;
68108;SDS011;54893;49.864;19.084;2024-03-08T17:14:13;206.55;;;65.70;;
68108;SDS011;54893;49.864;19.084;2024-03-08T17:19:14;131.23;;;43.83;;
68108;SDS011;54893;49.864;19.084;2024-03-08T17:24:14;124.53;;;44.73;;
68108;SDS011;54893;49.864;19.084;2024-03-08T17:29:17;146.85;;;53.92;;
68108;SDS011;54893;49.864;19.084;2024-03-08T17:34:21;168.38;;;67.18;;
68108;SDS011;54893;49.864;19.084;2024-03-08T17:39:22;128.90;;;44.10;;
68108;SDS011;54893;49.864;19.084;2024-03-08T17:44:26;132.80;;;48.17;;
68108;SDS011;54893;49.864;19.084;2024-03-08T17:49:26;183.50;;;66.47;;
68108;SDS011;54893;49.864;19.084;2024-03-08T17:54:26;225.40;;;84.57;;
68108;SDS011;54893;49.864;19.084;2024-03-08T17:59:27;179.13;;;62.27;;
68108;SDS011;54893;49.864;19.084;2024-03-08T18:04:28;119.65;;;45.55;;
68108;SDS011;54893;49.864;19.084;2024-03-08T18:09:28;109.73;;;41.33;;
68108;SDS011;54893;49.864;19.084;2024-03-08T18:14:29;100.87;;;33.90;;
68108;SDS011;54893;49.864;19.084;2024-03-08T18:19:30;123.90;;;46.07;;
68108;SDS011;54893;49.864;19.084;2024-03-08T18:24:33;93.55;;;31.42;;
68108;SDS011;54893;49.864;19.084;2024-03-08T18:29:33;90.27;;;31.67;;
68108;SDS011;54893;49.864;19.084;2024-03-08T18:34:33;84.83;;;29.83;;
68108;SDS011;54893;49.864;19.084;2024-03-08T18:39:34;95.30;;;32.93;;
68108;SDS011;54893;49.864;19.084;2024-03-08T18:44:37;143.75;;;48.63;;
68108;SDS011;54893;49.864;19.084;2024-03-08T18:49:37;105.50;;;34.20;;
68108;SDS011;54893;49.864;19.084;2024-03-08T18:54:38;96.63;;;32.60;;
68108;SDS011;54893;49.864;19.084;2024-03-08T18:59:41;100.73;;;33.70;;
68108;SDS011;54893;49.864;19.084;2024-03-08T19:04:41;152.95;;;53.42;;
68108;SDS011;54893;49.864;19.084;2024-03-08T19:09:42;225.07;;;83.82;;
68108;SDS011;54893;49.864;19.084;2024-03-08T19:14:45;137.13;;;50.50;;
68108;SDS011;54893;49.864;19.084;2024-03-08T19:19:47;112.77;;;39.00;;
68108;SDS011;54893;49.864;19.084;2024-03-08T19:24:48;168.20;;;58.38;;
68108;SDS011;54893;49.864;19.084;2024-03-08T19:29:52;177.70;;;63.30;;
68108;SDS011;54893;49.864;19.084;2024-03-08T19:34:52;158.77;;;57.10;;
68108;SDS011;54893;49.864;19.084;2024-03-08T19:39:53;133.00;;;46.83;;
68108;SDS011;54893;49.864;19.084;2024-03-08T19:44:53;143.20;;;54.77;;
68108;SDS011;54893;49.864;19.084;2024-03-08T19:49:54;158.40;;;61.53;;
68108;SDS011;54893;49.864;19.084;2024-03-08T19:54:56;155.23;;;59.47;;
68108;SDS011;54893;49.864;19.084;2024-03-08T20:00:00;146.55;;;53.00;;
68108;SDS011;54893;49.864;19.084;2024-03-08T20:05:01;135.03;;;49.73;;
68108;SDS011;54893;49.864;19.084;2024-03-08T20:10:04;129.18;;;49.45;;
68108;SDS011;54893;49.864;19.084;2024-03-08T20:15:10;139.23;;;51.42;;
68108;SDS011;54893;49.864;19.084;2024-03-08T20:20:15;132.30;;;46.50;;
68108;SDS011;54893;49.864;19.084;2024-03-08T20:25:16;144.40;;;51.63;;
68108;SDS011;54893;49.864;19.084;2024-03-08T20:30:22;183.18;;;67.28;;
68108;SDS011;54893;49.864;19.084;2024-03-08T20:35:27;151.87;;;55.03;;
68108;SDS011;54893;49.864;19.084;2024-03-08T20:40:29;147.00;;;55.00;;
68108;SDS011;54893;49.864;19.084;2024-03-08T20:45:38;150.70;;;55.00;;
68108;SDS011;54893;49.864;19.084;2024-03-08T20:50:39;162.63;;;58.67;;
68108;SDS011;54893;49.864;19.084;2024-03-08T20:55:42;177.85;;;65.22;;
68108;SDS011;54893;49.864;19.084;2024-03-08T21:00:45;195.35;;;70.93;;
68108;SDS011;54893;49.864;19.084;2024-03-08T21:05:55;182.07;;;64.33;;
68108;SDS011;54893;49.864;19.084;2024-03-08T21:10:56;185.98;;;64.47;;
68108;SDS011;54893;49.864;19.084;2024-03-08T21:15:57;171.37;;;62.13;;
68108;SDS011;54893;49.864;19.084;2024-03-08T21:20:59;191.32;;;67.15;;
68108;SDS011;54893;49.864;19.084;2024-03-08T21:26:01;191.80;;;70.83;;
68108;SDS011;54893;49.864;19.084;2024-03-08T21:31:01;212.18;;;76.35;;
68108;SDS011;54893;49.864;19.084;2024-03-08T21:36:02;227.37;;;82.57;;
68108;SDS011;54893;49.864;19.084;2024-03-08T21:41:03;213.33;;;74.73;;
68108;SDS011;54893;49.864;19.084;2024-03-08T21:46:08;218.73;;;79.07;;
68108;SDS011;54893;49.864;19.084;2024-03-08T21:51:08;204.17;;;71.30;;
68108;SDS011;54893;49.864;19.084;2024-03-08T21:56:13;203.13;;;73.43;;
68108;SDS011;54893;49.864;19.084;2024-03-08T22:01:14;189.77;;;67.75;;
68108;SDS011;54893;49.864;19.084;2024-03-08T22:06:17;185.13;;;67.05;;
68108;SDS011;54893;49.864;19.084;2024-03-08T22:11:21;176.37;;;61.33;;
68108;SDS011;54893;49.864;19.084;2024-03-08T22:16:23;169.38;;;59.20;;
68108;SDS011;54893;49.864;19.084;2024-03-08T22:21:23;183.90;;;61.57;;
68108;SDS011;54893;49.864;19.084;2024-03-08T22:26:24;179.93;;;62.67;;
68108;SDS011;54893;49.864;19.084;2024-03-08T22:31:25;178.30;;;65.53;;
68108;SDS011;54893;49.864;19.084;2024-03-08T22:36:26;217.63;;;75.25;;
68108;SDS011;54893;49.864;19.084;2024-03-08T22:41:27;212.17;;;75.80;;
68108;SDS011;54893;49.864;19.084;2024-03-08T22:46:29;220.52;;;77.43;;
68108;SDS011;54893;49.864;19.084;2024-03-08T22:51:31;234.32;;;77.65;;
68108;SDS011;54893;49.864;19.084;2024-03-08T22:56:34;236.55;;;79.32;;
68108;SDS011;54893;49.864;19.084;2024-03-08T23:01:35;246.10;;;81.57;;
68108;SDS011;54893;49.864;19.084;2024-03-08T23:06:38;245.07;;;85.93;;
68108;SDS011;54893;49.864;19.084;2024-03-08T23:11:40;235.63;;;82.47;;
68108;SDS011;54893;49.864;19.084;2024-03-08T23:16:41;232.57;;;75.35;;
68108;SDS011;54893;49.864;19.084;2024-03-08T23:21:46;226.30;;;75.78;;
68108;SDS011;54893;49.864;19.084;2024-03-08T23:26:49;206.40;;;73.40;;
68108;SDS011;54893;49.864;19.084;2024-03-08T23:31:49;214.87;;;74.07;;
68108;SDS011;54893;49.864;19.084;2024-03-08T23:36:50;183.25;;;64.10;;
68108;SDS011;54893;49.864;19.084;2024-03-08T23:41:51;198.60;;;70.73;;
68108;SDS011;54893;49.864;19.084;2024-03-08T23:46:51;286.80;;;101.50;;
68108;SDS011;54893;49.864;19.084;2024-03-08T23:51:52;259.90;;;89.33;;
68108;SDS011;54893;49.864;19.084;2024-03-08T23:56:52;261.73;;;90.03;;
